Time;durP1;ratioP1;P1;durP2;ratioP2;P2;SDS_P1;SDS_P2;PMS_P1;PMS_P2;Temp;Humidity;BMP_temperature;BMP_pressure;BME280_temperature;BME280_humidity;BME280_pressure;Samples;Min_cycle;Max_cycle;Signal;HPM_P1;HPM_P2
2022/02/28 00:01:22;;;;;;;;;7.33;7.33;;;;;;;;5042711;28;8884;-84
2022/02/28 00:03:50;;;;;;;;;12.00;12.00;;;;;;;;5042307;28;8873;-82
2022/02/28 00:06:18;;;;;;;;;8.00;8.00;;;;;;;;5044458;28;8861;-84
2022/02/28 00:08:45;;;;;;;;;12.67;12.67;;;;;;;;5043754;28;9003;-85
2022/02/28 00:11:13;;;;;;;;;13.33;12.00;;;;;;;;5043221;28;8889;-84
2022/02/28 00:13:41;;;;;;;;;8.67;8.67;;;;;;;;5042404;28;8889;-85
2022/02/28 00:16:09;;;;;;;;;17.00;17.00;;;;;;;;5042465;28;8876;-84
2022/02/28 00:18:37;;;;;;;;;11.00;10.67;;;;;;;;5043609;28;8884;-84
2022/02/28 00:21:04;;;;;;;;;11.00;11.00;;;;;;;;5043154;28;8888;-83
2022/02/28 00:23:32;;;;;;;;;15.00;14.00;;;;;;;;5040743;28;8978;-84
2022/02/28 00:26:01;;;;;;;;;11.33;11.33;;;;;;;;5042173;28;8964;-84
2022/02/28 00:28:28;;;;;;;;;13.00;13.00;;;;;;;;5043355;28;8873;-83
2022/02/28 00:30:55;;;;;;;;;12.00;11.33;;;;;;;;5041512;28;8826;-84
2022/02/28 00:33:24;;;;;;;;;13.00;13.00;;;;;;;;5038675;28;8873;-84
2022/02/28 00:35:51;;;;;;;;;11.67;11.67;;;;;;;;5049307;28;8881;-83
2022/02/28 00:38:18;;;;;;;;;12.67;12.67;;;;;;;;5041430;28;8873;-83
2022/02/28 00:40:46;;;;;;;;;11.33;11.33;;;;;;;;5050655;28;8870;-84
2022/02/28 00:43:13;;;;;;;;;13.00;11.33;;;;;;;;5042075;28;8865;-84
2022/02/28 00:45:40;;;;;;;;;12.00;12.00;;;;;;;;5042272;28;8877;-84
2022/02/28 00:48:08;;;;;;;;;16.67;16.67;;;;;;;;5042633;28;8875;-84
2022/02/28 00:50:38;;;;;;;;;12.67;11.00;;;;;;;;5042428;28;8907;-84
2022/02/28 00:53:06;;;;;;;;;8.00;8.00;;;;;;;;5043767;28;8869;-84
2022/02/28 00:55:33;;;;;;;;;12.33;12.33;;;;;;;;5040899;28;8912;-83
2022/02/28 00:58:00;;;;;;;;;10.00;10.00;;;;;;;;5042482;28;8853;-85
2022/02/28 01:00:28;;;;;;;;;12.00;12.00;;;;;;;;5041677;28;8828;-85
2022/02/28 01:02:56;;;;;;;;;10.00;10.00;;;;;;;;5043795;28;8887;-84
2022/02/28 01:05:24;;;;;;;;;11.67;11.67;;;;;;;;5043378;28;8865;-85
2022/02/28 01:07:53;;;;;;;;;12.00;9.33;;;;;;;;5042235;28;8954;-84
2022/02/28 01:10:23;;;;;;;;;14.67;14.67;;;;;;;;5043042;28;8857;-83
2022/02/28 01:12:51;;;;;;;;;11.33;11.33;;;;;;;;5041478;28;8877;-85
2022/02/28 01:15:19;;;;;;;;;11.00;11.00;;;;;;;;5041948;28;8873;-85
2022/02/28 01:17:46;;;;;;;;;10.00;10.00;;;;;;;;5038972;28;8857;-84
2022/02/28 01:20:15;;;;;;;;;17.33;17.33;;;;;;;;5040525;28;8861;-85
2022/02/28 01:22:43;;;;;;;;;13.00;13.00;;;;;;;;5041081;28;9029;-85
2022/02/28 01:25:12;;;;;;;;;11.67;11.67;;;;;;;;5042245;28;9039;-84
2022/02/28 01:27:40;;;;;;;;;13.67;13.67;;;;;;;;5041978;28;8887;-84
2022/02/28 01:30:08;;;;;;;;;10.00;8.00;;;;;;;;5072569;28;8877;-84
2022/02/28 01:32:35;;;;;;;;;13.00;13.00;;;;;;;;5042581;28;9699;-85
2022/02/28 01:35:03;;;;;;;;;10.00;10.00;;;;;;;;5045162;28;8873;-84
2022/02/28 01:37:30;;;;;;;;;11.33;10.33;;;;;;;;5041458;28;8923;-85
2022/02/28 01:39:57;;;;;;;;;10.33;10.00;;;;;;;;5042239;28;8850;-83
2022/02/28 01:42:26;;;;;;;;;11.67;11.67;;;;;;;;5040866;28;8920;-84
2022/02/28 01:44:54;;;;;;;;;11.67;11.67;;;;;;;;5042520;28;8859;-84
2022/02/28 01:47:21;;;;;;;;;12.00;10.67;;;;;;;;5030718;28;9007;-84
2022/02/28 01:49:48;;;;;;;;;10.67;8.67;;;;;;;;5042170;28;8869;-84
2022/02/28 01:52:16;;;;;;;;;6.33;6.33;;;;;;;;5041268;28;8904;-83
2022/02/28 01:54:44;;;;;;;;;7.67;7.67;;;;;;;;5041127;28;8865;-84
2022/02/28 01:57:11;;;;;;;;;13.33;13.33;;;;;;;;5040627;28;8856;-84
2022/02/28 01:59:40;;;;;;;;;8.67;8.67;;;;;;;;5041346;28;8884;-84
2022/02/28 02:02:07;;;;;;;;;9.67;9.67;;;;;;;;5040941;28;8848;-84
2022/02/28 02:04:35;;;;;;;;;8.00;8.00;;;;;;;;5039210;28;8915;-84
2022/02/28 02:07:03;;;;;;;;;10.67;10.67;;;;;;;;5041730;28;8881;-84
2022/02/28 02:09:31;;;;;;;;;10.67;10.67;;;;;;;;5040165;28;9457;-84
2022/02/28 02:11:58;;;;;;;;;12.33;12.33;;;;;;;;5041427;28;8857;-84
2022/02/28 02:14:25;;;;;;;;;8.00;8.00;;;;;;;;5041451;28;8881;-84
2022/02/28 02:16:54;;;;;;;;;11.33;11.33;;;;;;;;5040444;28;8891;-84
2022/02/28 02:19:22;;;;;;;;;8.00;8.00;;;;;;;;5037230;28;8887;-85
2022/02/28 02:21:51;;;;;;;;;9.33;9.33;;;;;;;;5041144;28;8922;-84
2022/02/28 02:24:18;;;;;;;;;13.00;10.00;;;;;;;;5041024;28;8892;-85
2022/02/28 02:26:47;;;;;;;;;8.67;8.67;;;;;;;;5034621;28;8899;-84
2022/02/28 02:29:15;;;;;;;;;8.00;8.00;;;;;;;;5040548;28;9762;-85
2022/02/28 02:31:42;;;;;;;;;11.00;11.00;;;;;;;;5039327;28;8814;-85
2022/02/28 02:34:10;;;;;;;;;10.33;10.33;;;;;;;;5041000;28;8881;-83
2022/02/28 02:36:40;;;;;;;;;10.00;10.00;;;;;;;;5041530;28;8853;-83
2022/02/28 02:39:09;;;;;;;;;11.00;11.00;;;;;;;;5041071;28;8991;-83
2022/02/28 02:41:37;;;;;;;;;9.67;9.67;;;;;;;;5040696;28;8865;-84
2022/02/28 02:44:05;;;;;;;;;13.33;13.33;;;;;;;;5040978;28;8899;-83
2022/02/28 02:46:32;;;;;;;;;5.67;5.67;;;;;;;;5041258;28;8916;-84
2022/02/28 02:48:59;;;;;;;;;10.00;10.00;;;;;;;;5038889;28;8869;-83
2022/02/28 02:51:26;;;;;;;;;10.33;10.33;;;;;;;;5023578;28;8908;-84
2022/02/28 02:53:54;;;;;;;;;7.67;7.67;;;;;;;;5040965;28;8880;-85
2022/02/28 02:56:22;;;;;;;;;7.00;7.00;;;;;;;;5040831;28;8907;-84
2022/02/28 02:58:50;;;;;;;;;10.00;10.00;;;;;;;;5043460;28;8899;-85
2022/02/28 03:01:17;;;;;;;;;6.33;4.67;;;;;;;;5043206;28;8928;-85
2022/02/28 03:03:46;;;;;;;;;7.00;7.00;;;;;;;;5045638;28;8885;-84
2022/02/28 03:06:16;;;;;;;;;6.33;6.33;;;;;;;;5042423;28;8880;-83
2022/02/28 03:08:44;;;;;;;;;11.00;11.00;;;;;;;;5045762;28;8954;-84
2022/02/28 03:11:11;;;;;;;;;13.00;13.00;;;;;;;;5042808;28;8861;-84
2022/02/28 03:13:40;;;;;;;;;8.00;8.00;;;;;;;;5044970;28;8891;-84
2022/02/28 03:16:08;;;;;;;;;11.67;11.67;;;;;;;;5045118;28;8896;-85
2022/02/28 03:18:35;;;;;;;;;10.00;10.00;;;;;;;;5043331;28;8877;-84
2022/02/28 03:21:03;;;;;;;;;8.00;8.00;;;;;;;;5045647;28;8887;-88
2022/02/28 03:23:32;;;;;;;;;11.00;10.00;;;;;;;;5044152;28;9699;-85
2022/02/28 03:25:59;;;;;;;;;7.67;7.67;;;;;;;;5045366;28;8873;-87
2022/02/28 03:28:26;;;;;;;;;10.33;10.33;;;;;;;;5044956;28;9011;-88
2022/02/28 03:30:55;;;;;;;;;8.00;8.00;;;;;;;;5043694;28;8854;-85
2022/02/28 03:33:23;;;;;;;;;11.00;10.33;;;;;;;;5044364;28;8869;-85
2022/02/28 03:35:50;;;;;;;;;7.33;7.33;;;;;;;;5043865;28;8877;-86
2022/02/28 03:38:17;;;;;;;;;8.00;8.00;;;;;;;;5044631;28;8908;-87
2022/02/28 03:40:48;;;;;;;;;10.67;10.67;;;;;;;;5041520;28;8893;-86
2022/02/28 03:43:15;;;;;;;;;8.00;8.00;;;;;;;;5040674;28;8874;-87
2022/02/28 03:45:43;;;;;;;;;11.00;11.00;;;;;;;;5040428;28;9012;-89
2022/02/28 03:48:11;;;;;;;;;16.00;16.00;;;;;;;;5044231;28;8892;-87
2022/02/28 03:50:39;;;;;;;;;10.67;10.67;;;;;;;;5044000;28;8866;-87
2022/02/28 03:53:06;;;;;;;;;8.00;8.00;;;;;;;;5036916;28;8869;-84
2022/02/28 03:55:33;;;;;;;;;7.00;7.00;;;;;;;;5044683;28;8893;-84
2022/02/28 03:58:01;;;;;;;;;9.67;9.67;;;;;;;;5042752;28;8880;-84
2022/02/28 04:00:28;;;;;;;;;17.00;17.00;;;;;;;;5043885;28;8825;-84
2022/02/28 04:02:56;;;;;;;;;8.33;7.67;;;;;;;;5043183;28;8865;-84
2022/02/28 04:05:25;;;;;;;;;10.33;10.33;;;;;;;;5043743;28;8893;-84
2022/02/28 04:07:52;;;;;;;;;6.33;6.33;;;;;;;;5043228;28;9248;-84
2022/02/28 04:10:19;;;;;;;;;5.00;5.00;;;;;;;;5041152;28;8877;-82
2022/02/28 04:12:47;;;;;;;;;10.00;10.00;;;;;;;;5076576;28;8866;-84
2022/02/28 04:15:14;;;;;;;;;11.67;11.67;;;;;;;;5043173;28;8881;-83
2022/02/28 04:17:41;;;;;;;;;8.00;7.00;;;;;;;;5043642;28;9017;-83
2022/02/28 04:20:09;;;;;;;;;7.00;7.00;;;;;;;;5041092;28;8865;-83
2022/02/28 04:22:38;;;;;;;;;7.00;7.00;;;;;;;;5038232;28;8861;-84
2022/02/28 04:25:07;;;;;;;;;11.67;11.67;;;;;;;;5041706;28;8841;-86
2022/02/28 04:27:34;;;;;;;;;14.67;14.67;;;;;;;;5041324;28;8900;-85
2022/02/28 04:30:02;;;;;;;;;11.67;11.67;;;;;;;;5043117;28;8891;-83
2022/02/28 04:32:29;;;;;;;;;10.33;9.33;;;;;;;;5041766;28;8903;-83
2022/02/28 04:34:57;;;;;;;;;11.67;11.67;;;;;;;;5038379;28;8880;-83
2022/02/28 04:37:24;;;;;;;;;8.67;8.67;;;;;;;;5042097;28;8883;-84
2022/02/28 04:39:53;;;;;;;;;13.00;10.67;;;;;;;;5043390;28;8901;-83
2022/02/28 04:42:21;;;;;;;;;10.67;10.67;;;;;;;;5042281;28;10055;-85
2022/02/28 04:44:49;;;;;;;;;11.00;11.00;;;;;;;;5040489;28;8900;-86
2022/02/28 04:47:16;;;;;;;;;12.00;12.00;;;;;;;;5058751;28;8960;-84
2022/02/28 04:49:43;;;;;;;;;7.67;7.67;;;;;;;;5042337;28;8875;-84
2022/02/28 04:52:11;;;;;;;;;7.00;7.00;;;;;;;;5018307;28;8896;-84
2022/02/28 04:54:38;;;;;;;;;12.00;12.00;;;;;;;;5033157;28;8898;-83
2022/02/28 04:57:07;;;;;;;;;10.00;10.00;;;;;;;;5038042;28;8882;-84
2022/02/28 04:59:34;;;;;;;;;8.33;8.33;;;;;;;;5041635;28;8865;-84
2022/02/28 05:02:02;;;;;;;;;9.33;9.33;;;;;;;;5049855;28;9579;-84
2022/02/28 05:04:30;;;;;;;;;10.33;10.33;;;;;;;;5040825;28;8888;-83
2022/02/28 05:06:57;;;;;;;;;8.33;8.33;;;;;;;;5040190;28;8857;-83
2022/02/28 05:09:25;;;;;;;;;9.33;9.33;;;;;;;;5039322;28;9662;-83
2022/02/28 05:11:52;;;;;;;;;5.67;5.67;;;;;;;;5045295;28;9032;-83
2022/02/28 05:14:21;;;;;;;;;8.33;8.33;;;;;;;;5048205;28;8908;-82
2022/02/28 05:16:48;;;;;;;;;7.33;7.33;;;;;;;;5041429;28;8887;-84
2022/02/28 05:19:16;;;;;;;;;8.00;8.00;;;;;;;;5041029;28;8903;-83
2022/02/28 05:21:43;;;;;;;;;7.33;7.33;;;;;;;;5038666;28;8867;-81
2022/02/28 05:24:10;;;;;;;;;9.00;9.00;;;;;;;;5040384;28;8938;-80
2022/02/28 05:26:38;;;;;;;;;7.67;7.67;;;;;;;;5038893;28;8899;-78
2022/02/28 05:29:05;;;;;;;;;10.33;10.33;;;;;;;;5039775;28;8904;-80
2022/02/28 05:31:34;;;;;;;;;8.33;8.33;;;;;;;;5039751;28;8830;-81
2022/02/28 05:34:01;;;;;;;;;7.00;7.00;;;;;;;;5039312;28;8907;-81
2022/02/28 05:36:28;;;;;;;;;9.67;9.67;;;;;;;;5034887;28;8900;-81
2022/02/28 05:38:56;;;;;;;;;7.00;7.00;;;;;;;;5040688;28;8881;-81
2022/02/28 05:41:23;;;;;;;;;6.33;6.33;;;;;;;;5020751;28;8861;-82
2022/02/28 05:43:51;;;;;;;;;18.67;18.67;;;;;;;;5042972;28;8831;-83
2022/02/28 05:46:18;;;;;;;;;6.33;6.33;;;;;;;;5039921;28;8880;-81
2022/02/28 05:48:47;;;;;;;;;8.33;8.33;;;;;;;;5040174;28;8870;-82
2022/02/28 05:51:14;;;;;;;;;10.67;10.67;;;;;;;;5039436;28;8868;-82
2022/02/28 05:53:42;;;;;;;;;9.33;9.33;;;;;;;;5041612;28;8900;-81
2022/02/28 05:56:09;;;;;;;;;7.00;7.00;;;;;;;;5039610;28;8841;-81
2022/02/28 05:58:36;;;;;;;;;6.67;6.67;;;;;;;;5041443;28;8913;-82
2022/02/28 06:01:04;;;;;;;;;9.00;9.00;;;;;;;;5041072;28;8838;-82
2022/02/28 06:03:31;;;;;;;;;7.00;7.00;;;;;;;;5042546;28;8873;-82
2022/02/28 06:06:00;;;;;;;;;9.00;9.00;;;;;;;;5039843;28;8869;-82
2022/02/28 06:08:28;;;;;;;;;10.00;10.00;;;;;;;;5039627;28;8939;-82
2022/02/28 06:10:55;;;;;;;;;5.33;5.33;;;;;;;;5041016;28;8881;-82
2022/02/28 06:13:22;;;;;;;;;12.33;12.33;;;;;;;;5039160;28;8924;-81
2022/02/28 06:15:49;;;;;;;;;10.67;10.67;;;;;;;;5041365;28;8869;-82
2022/02/28 06:18:17;;;;;;;;;6.00;6.00;;;;;;;;5037789;28;8984;-82
2022/02/28 06:20:45;;;;;;;;;10.00;10.00;;;;;;;;5036290;28;8885;-84
2022/02/28 06:23:15;;;;;;;;;10.33;10.33;;;;;;;;5039574;28;8853;-83
2022/02/28 06:25:42;;;;;;;;;7.00;7.00;;;;;;;;5042047;28;8892;-77
2022/02/28 06:28:10;;;;;;;;;7.00;7.00;;;;;;;;5027259;28;8919;-75
2022/02/28 06:30:37;;;;;;;;;9.00;9.00;;;;;;;;5034980;28;8809;-75
2022/02/28 06:33:04;;;;;;;;;10.00;10.00;;;;;;;;5041566;28;8845;-75
2022/02/28 06:35:32;;;;;;;;;9.33;9.33;;;;;;;;5041424;28;8857;-75
2022/02/28 06:37:59;;;;;;;;;5.67;5.67;;;;;;;;5042280;28;8991;-77
2022/02/28 06:40:28;;;;;;;;;7.67;7.67;;;;;;;;5039717;28;9626;-77
2022/02/28 06:42:55;;;;;;;;;0.00;0.00;;;;;;;;5041336;28;8869;-77
2022/02/28 06:45:24;;;;;;;;;5.00;5.00;;;;;;;;5072647;28;8901;-76
2022/02/28 06:47:52;;;;;;;;;6.00;6.00;;;;;;;;5042641;28;8857;-76
2022/02/28 06:50:19;;;;;;;;;7.67;7.67;;;;;;;;5044232;28;9025;-75
2022/02/28 06:52:46;;;;;;;;;8.33;8.33;;;;;;;;5044020;28;8869;-76
2022/02/28 06:55:14;;;;;;;;;9.00;9.00;;;;;;;;5046648;28;9675;-76
2022/02/28 06:57:43;;;;;;;;;8.33;8.33;;;;;;;;5049349;28;8940;-76
2022/02/28 07:00:11;;;;;;;;;12.00;12.00;;;;;;;;5043935;28;8938;-76
2022/02/28 07:02:40;;;;;;;;;8.33;8.33;;;;;;;;5045029;28;8857;-76
2022/02/28 07:05:08;;;;;;;;;9.00;9.00;;;;;;;;5041458;28;8996;-77
2022/02/28 07:07:35;;;;;;;;;12.33;12.00;;;;;;;;5044072;28;8869;-76
2022/02/28 07:10:04;;;;;;;;;11.33;11.33;;;;;;;;5043212;28;8888;-77
2022/02/28 07:12:32;;;;;;;;;12.33;12.00;;;;;;;;5044483;28;8893;-77
2022/02/28 07:15:01;;;;;;;;;10.00;8.67;;;;;;;;5040528;28;8872;-76
2022/02/28 07:17:28;;;;;;;;;13.00;13.00;;;;;;;;5041665;28;9845;-77
2022/02/28 07:19:56;;;;;;;;;10.00;10.00;;;;;;;;5042668;28;8845;-77
2022/02/28 07:22:23;;;;;;;;;11.33;11.33;;;;;;;;5042188;28;9000;-76
2022/02/28 07:24:51;;;;;;;;;15.00;15.00;;;;;;;;5043837;28;8865;-77
2022/02/28 07:27:18;;;;;;;;;10.00;10.00;;;;;;;;5043221;28;8873;-77
2022/02/28 07:29:45;;;;;;;;;9.33;9.33;;;;;;;;5043652;28;8905;-76
2022/02/28 07:32:14;;;;;;;;;11.67;11.67;;;;;;;;5043133;28;8802;-77
2022/02/28 07:34:42;;;;;;;;;9.67;9.67;;;;;;;;5043000;28;8965;-77
2022/02/28 07:37:09;;;;;;;;;23.00;23.00;;;;;;;;5044096;28;8980;-78
2022/02/28 07:39:36;;;;;;;;;12.67;12.67;;;;;;;;5042582;28;8908;-77
2022/02/28 07:42:05;;;;;;;;;12.33;12.33;;;;;;;;5043688;28;8861;-75
2022/02/28 07:44:32;;;;;;;;;15.00;15.00;;;;;;;;5040171;28;8980;-76
2022/02/28 07:46:59;;;;;;;;;18.67;18.67;;;;;;;;5041983;28;8889;-76
2022/02/28 07:49:34;;;;;;;;;30.33;27.67;;;;;;;;5042463;28;8849;-76
2022/02/28 07:52:01;;;;;;;;;22.33;22.33;;;;;;;;5042499;28;8872;-76
2022/02/28 07:54:28;;;;;;;;;27.33;27.33;;;;;;;;5043354;28;8878;-76
2022/02/28 07:56:56;;;;;;;;;19.33;19.33;;;;;;;;5041865;28;9564;-75
2022/02/28 07:59:24;;;;;;;;;26.67;26.67;;;;;;;;5041652;28;8878;-75
2022/02/28 08:01:51;;;;;;;;;18.67;18.67;;;;;;;;5042029;28;9718;-75
2022/02/28 08:04:18;;;;;;;;;22.00;22.00;;;;;;;;5040275;28;8891;-76
2022/02/28 08:06:47;;;;;;;;;17.67;16.67;;;;;;;;5041940;28;8865;-75
2022/02/28 08:09:16;;;;;;;;;15.67;15.67;;;;;;;;5039607;28;8877;-75
2022/02/28 08:11:44;;;;;;;;;13.00;13.00;;;;;;;;5042568;28;8861;-76
2022/02/28 08:14:11;;;;;;;;;17.00;17.00;;;;;;;;5042068;28;8873;-76
2022/02/28 08:16:38;;;;;;;;;17.00;17.00;;;;;;;;5042095;28;8917;-76
2022/02/28 08:19:06;;;;;;;;;22.33;21.67;;;;;;;;5041386;28;8891;-75
2022/02/28 08:21:33;;;;;;;;;27.00;17.00;;;;;;;;5042658;28;8915;-73
2022/02/28 08:24:02;;;;;;;;;19.00;14.67;;;;;;;;5039327;28;8881;-74
2022/02/28 08:26:29;;;;;;;;;14.00;12.00;;;;;;;;5042752;28;8885;-73
2022/02/28 08:28:57;;;;;;;;;14.33;9.67;;;;;;;;5042329;28;8876;-74
2022/02/28 08:31:24;;;;;;;;;12.33;11.00;;;;;;;;5041125;28;8826;-73
2022/02/28 08:33:51;;;;;;;;;11.33;11.33;;;;;;;;5042654;28;11590;-73
2022/02/28 08:36:19;;;;;;;;;20.33;17.33;;;;;;;;5029720;28;11581;-74
2022/02/28 08:38:46;;;;;;;;;14.67;12.00;;;;;;;;5042310;28;11603;-75
2022/02/28 08:41:15;;;;;;;;;18.00;18.00;;;;;;;;5038196;28;11608;-75
2022/02/28 08:43:42;;;;;;;;;21.00;16.67;;;;;;;;5040802;28;11708;-75
2022/02/28 08:46:10;;;;;;;;;22.33;16.67;;;;;;;;5041933;28;11603;-75
2022/02/28 08:48:37;;;;;;;;;12.00;12.00;;;;;;;;5041089;28;11637;-74
2022/02/28 08:51:05;;;;;;;;;18.50;15.50;;;;;;;;5041866;28;11573;-74
2022/02/28 08:53:32;;;;;;;;;12.25;12.25;;;;;;;;5029028;28;11618;-75
2022/02/28 08:55:59;;;;;;;;;12.50;12.50;;;;;;;;5040900;28;11657;-75
2022/02/28 08:58:28;;;;;;;;;13.00;13.00;;;;;;;;5038440;28;11565;-76
2022/02/28 09:00:56;;;;;;;;;12.00;9.50;;;;;;;;5029138;28;11571;-75
2022/02/28 09:03:23;;;;;;;;;11.25;11.25;;;;;;;;5042350;28;11699;-75
2022/02/28 09:05:51;;;;;;;;;9.75;9.50;;;;;;;;5023823;28;12353;-76
2022/02/28 09:08:18;;;;;;;;;12.75;12.00;;;;;;;;5008571;28;11566;-76
2022/02/28 09:10:49;;;;;;;;;10.00;10.00;;;;;;;;5005541;28;11567;-77
2022/02/28 09:13:16;;;;;;;;;11.50;9.00;;;;;;;;5033267;28;12340;-75
2022/02/28 09:15:45;;;;;;;;;16.25;14.00;;;;;;;;5040758;28;11657;-75
2022/02/28 09:18:12;;;;;;;;;13.00;12.00;;;;;;;;5042714;28;11583;-74
2022/02/28 09:20:39;;;;;;;;;10.25;10.25;;;;;;;;5039096;28;11554;-76
2022/02/28 09:23:07;;;;;;;;;13.50;10.00;;;;;;;;5041369;28;11585;-75
2022/02/28 09:25:35;;;;;;;;;16.50;16.50;;;;;;;;5042786;28;11610;-76
2022/02/28 09:28:03;;;;;;;;;8.25;8.25;;;;;;;;5039254;28;11585;-76
2022/02/28 09:30:30;;;;;;;;;13.75;12.00;;;;;;;;5042383;28;11503;-76
2022/02/28 09:32:59;;;;;;;;;10.75;9.25;;;;;;;;5040099;28;11566;-76
2022/02/28 09:35:27;;;;;;;;;13.00;10.50;;;;;;;;5041974;28;11554;-76
2022/02/28 09:37:55;;;;;;;;;7.00;7.00;;;;;;;;5040879;28;11588;-75
2022/02/28 09:40:27;;;;;;;;;14.50;13.00;;;;;;;;5042532;28;11557;-76
2022/02/28 09:42:57;;;;;;;;;11.00;9.50;;;;;;;;5039428;28;11527;-77
2022/02/28 09:45:25;;;;;;;;;15.25;13.50;;;;;;;;5031287;28;13280;-78
2022/02/28 09:47:53;;;;;;;;;10.25;10.25;;;;;;;;5014544;28;11750;-78
2022/02/28 09:50:22;;;;;;;;;11.25;10.25;;;;;;;;5017329;28;11647;-77
2022/02/28 09:52:50;;;;;;;;;11.00;10.00;;;;;;;;5009948;28;11529;-76
2022/02/28 09:55:18;;;;;;;;;10.50;10.00;;;;;;;;5036213;28;11505;-76
2022/02/28 09:57:46;;;;;;;;;14.25;12.25;;;;;;;;5041910;28;12329;-76
2022/02/28 10:00:18;;;;;;;;;14.00;11.25;;;;;;;;5040969;28;11559;-76
2022/02/28 10:02:45;;;;;;;;;11.50;11.50;;;;;;;;5042308;28;11508;-76
2022/02/28 10:05:13;;;;;;;;;14.00;14.00;;;;;;;;5044910;28;11516;-78
2022/02/28 10:07:51;;;;;;;;;10.25;10.25;;;;;;;;5040368;28;11791;-75
2022/02/28 10:10:19;;;;;;;;;14.50;13.50;;;;;;;;5042713;28;11505;-77
2022/02/28 10:12:48;;;;;;;;;11.50;11.50;;;;;;;;5043187;28;11329;-77
2022/02/28 10:15:18;;;;;;;;;10.25;10.25;;;;;;;;5058710;28;11042;-76
2022/02/28 10:17:48;;;;;;;;;11.75;10.75;;;;;;;;5061838;28;11023;-77
2022/02/28 10:20:21;;;;;;;;;11.75;11.75;;;;;;;;5042044;28;10988;-77
2022/02/28 10:22:52;;;;;;;;;11.75;11.75;;;;;;;;5049132;28;10898;-76
2022/02/28 10:25:30;;;;;;;;;10.50;10.00;;;;;;;;5045080;28;10837;-76
2022/02/28 10:28:15;;;;;;;;;10.50;10.50;;;;;;;;5045673;28;10696;-77
2022/02/28 10:30:53;;;;;;;;;11.50;11.00;;;;;;;;5043903;28;10593;-76
2022/02/28 10:33:21;;;;;;;;;10.25;10.25;;;;;;;;5042176;28;10793;-78
2022/02/28 10:36:09;;;;;;;;;12.00;12.00;;;;;;;;5044775;28;10647;-78
2022/02/28 10:38:42;;;;;;;;;11.50;11.50;;;;;;;;5039304;28;10744;-76
2022/02/28 10:41:21;;;;;;;;;11.75;11.75;;;;;;;;5031875;28;10628;-77
2022/02/28 10:43:51;;;;;;;;;10.50;10.50;;;;;;;;5042052;28;11316;-76
2022/02/28 10:46:20;;;;;;;;;8.00;8.00;;;;;;;;5043723;28;10510;-75
2022/02/28 10:49:02;;;;;;;;;10.50;10.50;;;;;;;;5045439;28;10482;-76
2022/02/28 10:51:31;;;;;;;;;7.00;7.00;;;;;;;;5040009;28;10257;-76
2022/02/28 10:54:25;;;;;;;;;12.00;12.00;;;;;;;;5043960;28;10305;-75
2022/02/28 10:56:56;;;;;;;;;12.75;9.75;;;;;;;;5044952;28;10683;-76
2022/02/28 10:59:26;;;;;;;;;12.25;12.25;;;;;;;;5039158;28;10219;-76
2022/02/28 11:01:54;;;;;;;;;9.25;9.25;;;;;;;;5042534;28;10007;-76
2022/02/28 11:04:32;;;;;;;;;9.75;9.75;;;;;;;;5042525;28;9880;-76
2022/02/28 11:07:03;;;;;;;;;14.25;14.25;;;;;;;;5032023;28;9778;-76
2022/02/28 11:09:34;;;;;;;;;9.25;8.25;;;;;;;;5044193;28;9799;-75
2022/02/28 11:12:26;;;;;;;;;11.50;11.50;;;;;;;;5041597;28;9740;-76
2022/02/28 11:14:55;;;;;;;;;10.75;10.00;;;;;;;;5037926;28;9774;-76
2022/02/28 11:17:24;;;;;;;;;11.75;11.75;;;;;;;;5042176;28;9451;-76
2022/02/28 11:19:53;;;;;;;;;14.00;11.50;;;;;;;;5043751;28;9550;-76
2022/02/28 11:22:21;;;;;;;;;11.75;9.50;;;;;;;;5041826;28;9434;-74
2022/02/28 11:24:53;;;;;;;;;9.25;8.00;;;;;;;;5044228;28;9420;-74
2022/02/28 11:27:20;;;;;;;;;14.00;14.00;;;;;;;;5042508;28;9632;-77
2022/02/28 11:29:51;;;;;;;;;12.75;10.25;;;;;;;;5039695;28;10306;-76
2022/02/28 11:32:22;;;;;;;;;13.25;11.75;;;;;;;;5038919;28;9391;-78
2022/02/28 11:34:51;;;;;;;;;12.75;10.50;;;;;;;;5033237;28;10367;-75
2022/02/28 11:37:22;;;;;;;;;13.75;13.75;;;;;;;;5046832;28;9519;-76
2022/02/28 11:39:53;;;;;;;;;10.75;8.00;;;;;;;;5047924;28;9591;-74
2022/02/28 11:42:58;;;;;;;;;5.33;3.00;;;;;;;;5038570;28;9553;-76
2022/02/28 11:45:25;;;;;;;;;9.00;9.00;;;;;;;;5039047;28;9359;-76
2022/02/28 11:48:08;;;;;;;;;8.33;8.33;;;;;;;;5040869;28;9276;-76
2022/02/28 11:50:50;;;;;;;;;10.00;8.67;;;;;;;;5041452;28;9351;-75
2022/02/28 11:53:39;;;;;;;;;10.00;10.00;;;;;;;;5043349;28;9266;-77
2022/02/28 11:56:43;;;;;;;;;10.00;9.00;;;;;;;;5041283;28;9258;-76
2022/02/28 11:59:18;;;;;;;;;12.00;10.00;;;;;;;;5043529;28;9757;-76
2022/02/28 12:01:52;;;;;;;;;13.33;11.00;;;;;;;;5040130;28;9196;-77
2022/02/28 12:04:21;;;;;;;;;10.33;10.33;;;;;;;;5035455;28;9208;-76
2022/02/28 12:06:53;;;;;;;;;16.67;13.00;;;;;;;;5041704;28;9881;-76
2022/02/28 12:09:47;;;;;;;;;11.75;10.00;;;;;;;;5033415;28;9028;-75
2022/02/28 12:12:25;;;;;;;;;9.00;9.00;;;;;;;;5040154;28;8861;-77
2022/02/28 12:15:24;;;;;;;;;11.50;11.50;;;;;;;;5042298;28;8861;-77
2022/02/28 12:18:02;;;;;;;;;11.50;10.25;;;;;;;;5023447;28;8964;-80
2022/02/28 12:20:32;;;;;;;;;10.75;10.75;;;;;;;;5038220;28;9032;-77
2022/02/28 12:23:21;;;;;;;;;14.25;11.75;;;;;;;;5041617;28;8905;-76
2022/02/28 12:26:03;;;;;;;;;12.75;11.50;;;;;;;;5042724;28;8873;-77
2022/02/28 12:28:40;;;;;;;;;7.25;7.25;;;;;;;;5041858;28;8849;-75
2022/02/28 12:31:11;;;;;;;;;9.75;9.00;;;;;;;;5036602;28;8857;-77
2022/02/28 12:34:00;;;;;;;;;9.25;8.50;;;;;;;;5043657;28;8857;-77
2022/02/28 12:36:30;;;;;;;;;9.50;9.00;;;;;;;;5036290;28;8904;-79
2022/02/28 12:38:59;;;;;;;;;11.00;11.00;;;;;;;;5037005;28;8869;-79
2022/02/28 12:41:28;;;;;;;;;13.50;11.00;;;;;;;;5041483;28;8857;-76
2022/02/28 12:43:58;;;;;;;;;11.00;11.00;;;;;;;;5043060;28;8895;-76
2022/02/28 12:46:29;;;;;;;;;10.25;10.25;;;;;;;;5041021;28;8869;-76
2022/02/28 12:48:57;;;;;;;;;9.00;8.75;;;;;;;;5040690;28;8900;-78
2022/02/28 12:51:26;;;;;;;;;12.00;10.25;;;;;;;;5042523;28;8873;-77
2022/02/28 12:54:02;;;;;;;;;13.50;12.00;;;;;;;;5029682;28;9646;-75
2022/02/28 12:56:29;;;;;;;;;12.75;11.75;;;;;;;;5038125;28;8870;-77
2022/02/28 12:58:57;;;;;;;;;11.50;9.75;;;;;;;;5041795;28;8873;-76
2022/02/28 13:01:27;;;;;;;;;13.00;11.50;;;;;;;;5039954;28;8947;-76
2022/02/28 13:03:56;;;;;;;;;15.25;11.50;;;;;;;;5032098;28;9651;-75
2022/02/28 13:06:25;;;;;;;;;12.00;11.50;;;;;;;;5044101;28;8891;-75
2022/02/28 13:09:04;;;;;;;;;12.00;12.00;;;;;;;;5040636;28;8896;-75
2022/02/28 13:11:33;;;;;;;;;10.50;10.50;;;;;;;;5039377;28;8866;-76
2022/02/28 13:14:02;;;;;;;;;14.75;11.75;;;;;;;;5065896;28;9010;-76
2022/02/28 13:16:33;;;;;;;;;13.00;11.25;;;;;;;;5038631;28;8845;-76
2022/02/28 13:19:02;;;;;;;;;12.75;12.75;;;;;;;;5038867;28;8854;-75
2022/02/28 13:21:30;;;;;;;;;15.25;14.50;;;;;;;;5045520;28;8873;-76
2022/02/28 13:24:06;;;;;;;;;12.50;12.00;;;;;;;;5039651;28;9062;-75
2022/02/28 13:26:33;;;;;;;;;11.00;8.50;;;;;;;;5039605;28;8865;-76
2022/02/28 13:29:02;;;;;;;;;13.25;13.00;;;;;;;;5040865;28;8884;-76
2022/02/28 13:31:33;;;;;;;;;13.00;11.00;;;;;;;;5038416;28;8854;-80
2022/02/28 13:34:03;;;;;;;;;8.75;8.75;;;;;;;;5041375;28;8976;-76
2022/02/28 13:36:34;;;;;;;;;8.00;8.00;;;;;;;;5037016;28;8893;-75
2022/02/28 13:39:02;;;;;;;;;11.50;11.00;;;;;;;;5071393;28;9679;-78
2022/02/28 13:41:30;;;;;;;;;11.50;10.00;;;;;;;;5039263;28;8876;-76
2022/02/28 13:43:59;;;;;;;;;12.00;10.25;;;;;;;;5040527;28;8881;-76
2022/02/28 13:46:27;;;;;;;;;10.75;9.25;;;;;;;;5040155;28;8889;-78
2022/02/28 13:49:01;;;;;;;;;11.25;9.75;;;;;;;;5042498;28;8877;-79
2022/02/28 13:51:41;;;;;;;;;10.25;10.25;;;;;;;;5031890;28;8849;-78
2022/02/28 13:54:10;;;;;;;;;9.25;8.50;;;;;;;;5044031;28;8877;-76
2022/02/28 13:56:38;;;;;;;;;13.00;12.00;;;;;;;;5045320;28;9741;-77
2022/02/28 13:59:09;;;;;;;;;13.75;13.50;;;;;;;;5038587;28;8885;-76
2022/02/28 14:01:48;;;;;;;;;11.25;11.25;;;;;;;;5035429;28;8818;-77
2022/02/28 14:04:17;;;;;;;;;11.75;11.75;;;;;;;;5037405;28;8850;-77
2022/02/28 14:06:50;;;;;;;;;11.50;11.50;;;;;;;;5039930;28;8995;-76
2022/02/28 14:09:23;;;;;;;;;13.25;13.25;;;;;;;;5041068;28;8857;-76
2022/02/28 14:11:52;;;;;;;;;14.75;12.25;;;;;;;;5041661;28;8901;-76
2022/02/28 14:14:19;;;;;;;;;11.75;11.75;;;;;;;;5040608;28;8892;-77
2022/02/28 14:16:55;;;;;;;;;14.00;11.25;;;;;;;;5032968;28;8833;-77
2022/02/28 14:19:35;;;;;;;;;10.75;10.75;;;;;;;;5037911;28;8893;-76
2022/02/28 14:22:06;;;;;;;;;7.75;7.75;;;;;;;;5031734;28;8877;-77
2022/02/28 14:24:35;;;;;;;;;16.00;11.00;;;;;;;;5037908;28;9640;-75
2022/02/28 14:27:03;;;;;;;;;13.50;12.75;;;;;;;;5037307;28;8877;-76
2022/02/28 14:29:35;;;;;;;;;13.50;13.50;;;;;;;;5037080;28;8861;-77
2022/02/28 14:32:02;;;;;;;;;12.00;12.00;;;;;;;;5037627;28;9709;-77
2022/02/28 14:34:40;;;;;;;;;13.75;13.00;;;;;;;;5041023;28;8857;-77
2022/02/28 14:37:07;;;;;;;;;18.25;13.50;;;;;;;;5035488;28;8874;-76
2022/02/28 14:39:35;;;;;;;;;13.00;13.00;;;;;;;;5039324;28;8910;-76
2022/02/28 14:42:02;;;;;;;;;13.75;13.75;;;;;;;;5032902;28;8867;-77
2022/02/28 14:44:30;;;;;;;;;11.00;10.25;;;;;;;;5033513;28;8893;-76
2022/02/28 14:46:58;;;;;;;;;10.00;8.50;;;;;;;;5031462;28;8888;-77
2022/02/28 14:49:26;;;;;;;;;12.75;12.00;;;;;;;;5034547;28;8904;-76